sensor_id;sensor_type;location;lat;lon;timestamp;pressure;altitude;pressure_sealevel;temperature;humidity
54459;BME280;40368;49.350;8.152;2023-12-22T00:00:43;989.1;;;11.85;59.71
54459;BME280;40368;49.350;8.152;2023-12-22T00:01:43;989.3;;;11.85;59.1
54459;BME280;40368;49.350;8.152;2023-12-22T00:02:43;989.1;;;11.79;58.79
54459;BME280;40368;49.350;8.152;2023-12-22T00:03:43;989;;;11.74;58.87
54459;BME280;40368;49.350;8.152;2023-12-22T00:04:43;989;;;11.71;59.17
54459;BME280;40368;49.350;8.152;2023-12-22T00:05:44;988.9;;;11.68;59.71
54459;BME280;40368;49.350;8.152;2023-12-22T00:06:43;989;;;11.71;59.77
54459;BME280;40368;49.350;8.152;2023-12-22T00:07:43;989;;;11.74;59.31
54459;BME280;40368;49.350;8.152;2023-12-22T00:08:44;989.1;;;11.77;59.67
54459;BME280;40368;49.350;8.152;2023-12-22T00:09:43;989.1;;;11.72;58.68
54459;BME280;40368;49.350;8.152;2023-12-22T00:10:43;989.1;;;11.69;59.06
54459;BME280;40368;49.350;8.152;2023-12-22T00:11:43;989.1;;;11.68;59.4
54459;BME280;40368;49.350;8.152;2023-12-22T00:12:43;988.9;;;11.66;59.09
54459;BME280;40368;49.350;8.152;2023-12-22T00:13:43;989.1;;;11.67;59.01
54459;BME280;40368;49.350;8.152;2023-12-22T00:14:43;989.1;;;11.64;59.14
54459;BME280;40368;49.350;8.152;2023-12-22T00:15:43;989.3;;;11.65;59.17
54459;BME280;40368;49.350;8.152;2023-12-22T00:16:43;989;;;11.62;59.03
54459;BME280;40368;49.350;8.152;2023-12-22T00:17:43;989.2;;;11.61;59.46
54459;BME280;40368;49.350;8.152;2023-12-22T00:18:43;989.2;;;11.64;59.74
54459;BME280;40368;49.350;8.152;2023-12-22T00:19:43;989.2;;;11.66;59.33
54459;BME280;40368;49.350;8.152;2023-12-22T00:20:44;989.3;;;11.7;59.19
54459;BME280;40368;49.350;8.152;2023-12-22T00:21:44;989.4;;;11.7;59.27
54459;BME280;40368;49.350;8.152;2023-12-22T00:22:43;989.3;;;11.75;59.52
54459;BME280;40368;49.350;8.152;2023-12-22T00:23:43;989.3;;;11.72;59.16
54459;BME280;40368;49.350;8.152;2023-12-22T00:24:43;989.3;;;11.74;59.62
54459;BME280;40368;49.350;8.152;2023-12-22T00:25:43;989.3;;;11.75;58.96
54459;BME280;40368;49.350;8.152;2023-12-22T00:26:43;989.4;;;11.74;59.37
54459;BME280;40368;49.350;8.152;2023-12-22T00:27:43;989.2;;;11.7;58.89
54459;BME280;40368;49.350;8.152;2023-12-22T00:28:44;989.2;;;11.67;58.79
54459;BME280;40368;49.350;8.152;2023-12-22T00:29:44;989.1;;;11.64;58.96
54459;BME280;40368;49.350;8.152;2023-12-22T00:30:43;989.2;;;11.63;58.97
54459;BME280;40368;49.350;8.152;2023-12-22T00:31:44;989.2;;;11.66;59.34
54459;BME280;40368;49.350;8.152;2023-12-22T00:32:43;989.3;;;11.72;59.48
54459;BME280;40368;49.350;8.152;2023-12-22T00:33:43;989.1;;;11.71;58.48
54459;BME280;40368;49.350;8.152;2023-12-22T00:34:43;989.1;;;11.7;58.62
54459;BME280;40368;49.350;8.152;2023-12-22T00:35:43;989.2;;;11.67;58.69
54459;BME280;40368;49.350;8.152;2023-12-22T00:36:44;989.2;;;11.68;58.63
54459;BME280;40368;49.350;8.152;2023-12-22T00:37:43;989.2;;;11.72;58.3
54459;BME280;40368;49.350;8.152;2023-12-22T00:38:43;989.1;;;11.75;58.85
54459;BME280;40368;49.350;8.152;2023-12-22T00:39:44;989;;;11.81;58.31
54459;BME280;40368;49.350;8.152;2023-12-22T00:40:44;988.9;;;11.82;57.38
54459;BME280;40368;49.350;8.152;2023-12-22T00:41:44;989.1;;;11.79;57.67
54459;BME280;40368;49.350;8.152;2023-12-22T00:42:44;988.9;;;11.77;57.26
54459;BME280;40368;49.350;8.152;2023-12-22T00:43:44;989;;;11.75;58.13
54459;BME280;40368;49.350;8.152;2023-12-22T00:44:44;989;;;11.76;57.45
54459;BME280;40368;49.350;8.152;2023-12-22T00:45:43;989;;;11.74;57.01
54459;BME280;40368;49.350;8.152;2023-12-22T00:46:43;988.9;;;11.69;56.98
54459;BME280;40368;49.350;8.152;2023-12-22T00:47:44;988.9;;;11.67;57.7
54459;BME280;40368;49.350;8.152;2023-12-22T00:48:43;988.9;;;11.67;57.58
54459;BME280;40368;49.350;8.152;2023-12-22T00:49:44;988.9;;;11.68;58.49
54459;BME280;40368;49.350;8.152;2023-12-22T00:50:43;988.9;;;11.74;58.11
54459;BME280;40368;49.350;8.152;2023-12-22T00:51:43;989;;;11.79;58.33
54459;BME280;40368;49.350;8.152;2023-12-22T00:52:44;988.9;;;11.83;57.6
54459;BME280;40368;49.350;8.152;2023-12-22T00:53:43;988.9;;;11.85;58.22
54459;BME280;40368;49.350;8.152;2023-12-22T00:54:43;988.8;;;11.87;57.42
54459;BME280;40368;49.350;8.152;2023-12-22T00:55:43;988.9;;;11.91;57.81
54459;BME280;40368;49.350;8.152;2023-12-22T00:56:44;989;;;11.92;57.53
54459;BME280;40368;49.350;8.152;2023-12-22T00:57:43;989;;;11.94;57.16
54459;BME280;40368;49.350;8.152;2023-12-22T00:58:43;989;;;11.97;57.46
54459;BME280;40368;49.350;8.152;2023-12-22T00:59:43;989;;;11.99;57.47
54459;BME280;40368;49.350;8.152;2023-12-22T01:00:44;989.1;;;11.99;57.87
54459;BME280;40368;49.350;8.152;2023-12-22T01:01:44;989.1;;;11.91;57.13
54459;BME280;40368;49.350;8.152;2023-12-22T01:02:44;988.9;;;11.87;57.59
54459;BME280;40368;49.350;8.152;2023-12-22T01:03:43;988.9;;;11.84;57.56
54459;BME280;40368;49.350;8.152;2023-12-22T01:04:44;989;;;11.81;56.86
54459;BME280;40368;49.350;8.152;2023-12-22T01:05:44;989;;;11.82;57.89
54459;BME280;40368;49.350;8.152;2023-12-22T01:06:44;989;;;11.85;56.98
54459;BME280;40368;49.350;8.152;2023-12-22T01:07:43;989;;;11.88;57.59
54459;BME280;40368;49.350;8.152;2023-12-22T01:08:43;989.1;;;11.88;57.41
54459;BME280;40368;49.350;8.152;2023-12-22T01:09:43;989;;;11.91;57.74
54459;BME280;40368;49.350;8.152;2023-12-22T01:10:43;988.9;;;11.94;57.48
54459;BME280;40368;49.350;8.152;2023-12-22T01:11:44;988.9;;;11.95;57.33
54459;BME280;40368;49.350;8.152;2023-12-22T01:12:44;989;;;11.95;56.6
54459;BME280;40368;49.350;8.152;2023-12-22T01:13:44;988.9;;;11.91;57.04
54459;BME280;40368;49.350;8.152;2023-12-22T01:14:43;989;;;11.86;55.91
54459;BME280;40368;49.350;8.152;2023-12-22T01:15:43;989;;;11.87;57.32
54459;BME280;40368;49.350;8.152;2023-12-22T01:16:43;989.1;;;11.87;57.26
54459;BME280;40368;49.350;8.152;2023-12-22T01:17:44;989;;;11.87;56.52
54459;BME280;40368;49.350;8.152;2023-12-22T01:18:44;989;;;11.8;56.7
54459;BME280;40368;49.350;8.152;2023-12-22T01:19:43;989;;;11.77;57.17
54459;BME280;40368;49.350;8.152;2023-12-22T01:20:43;989.1;;;11.74;56.79
54459;BME280;40368;49.350;8.152;2023-12-22T01:21:43;989.2;;;11.7;56.22
54459;BME280;40368;49.350;8.152;2023-12-22T01:22:43;989;;;11.65;56.05
54459;BME280;40368;49.350;8.152;2023-12-22T01:23:44;989;;;11.56;55.93
54459;BME280;40368;49.350;8.152;2023-12-22T01:24:44;989.1;;;11.51;56.46
54459;BME280;40368;49.350;8.152;2023-12-22T01:25:43;989.2;;;11.49;56.96
54459;BME280;40368;49.350;8.152;2023-12-22T01:26:44;989.2;;;11.51;57.37
54459;BME280;40368;49.350;8.152;2023-12-22T01:27:43;989.2;;;11.58;58.37
54459;BME280;40368;49.350;8.152;2023-12-22T01:28:43;989.2;;;11.67;57.66
54459;BME280;40368;49.350;8.152;2023-12-22T01:29:43;989.1;;;11.69;56.2
54459;BME280;40368;49.350;8.152;2023-12-22T01:30:44;989.3;;;11.72;56.04
54459;BME280;40368;49.350;8.152;2023-12-22T01:31:43;989.2;;;11.75;56.6
54459;BME280;40368;49.350;8.152;2023-12-22T01:32:43;989.2;;;11.79;56.7
54459;BME280;40368;49.350;8.152;2023-12-22T01:33:43;989.4;;;11.83;56.06
54459;BME280;40368;49.350;8.152;2023-12-22T01:34:43;989.3;;;11.82;54.81
54459;BME280;40368;49.350;8.152;2023-12-22T01:35:44;989.2;;;11.8;54.68
54459;BME280;40368;49.350;8.152;2023-12-22T01:36:43;989.3;;;11.79;54.5
54459;BME280;40368;49.350;8.152;2023-12-22T01:37:44;989.5;;;11.76;55.36
54459;BME280;40368;49.350;8.152;2023-12-22T01:38:43;989.6;;;11.73;54.55
54459;BME280;40368;49.350;8.152;2023-12-22T01:39:43;989.5;;;11.71;54.66
54459;BME280;40368;49.350;8.152;2023-12-22T01:40:44;989.4;;;11.71;55.7
54459;BME280;40368;49.350;8.152;2023-12-22T01:41:44;989.5;;;11.72;54.6
54459;BME280;40368;49.350;8.152;2023-12-22T01:42:44;989.5;;;11.67;55.35
54459;BME280;40368;49.350;8.152;2023-12-22T01:43:44;989.4;;;11.7;56.6
54459;BME280;40368;49.350;8.152;2023-12-22T01:44:43;989.3;;;11.71;55.5
54459;BME280;40368;49.350;8.152;2023-12-22T01:45:43;989.4;;;11.74;55.96
54459;BME280;40368;49.350;8.152;2023-12-22T01:46:43;989.5;;;11.75;55.32
54459;BME280;40368;49.350;8.152;2023-12-22T01:47:44;989.3;;;11.71;54.82
54459;BME280;40368;49.350;8.152;2023-12-22T01:48:43;989.7;;;11.72;55.31
54459;BME280;40368;49.350;8.152;2023-12-22T01:49:43;989.4;;;11.72;55.62
54459;BME280;40368;49.350;8.152;2023-12-22T01:50:43;989.4;;;11.63;53.99
54459;BME280;40368;49.350;8.152;2023-12-22T01:51:43;989.5;;;11.6;55.46
54459;BME280;40368;49.350;8.152;2023-12-22T01:52:44;989.4;;;11.59;55.02
54459;BME280;40368;49.350;8.152;2023-12-22T01:53:44;989.4;;;11.56;54.99
54459;BME280;40368;49.350;8.152;2023-12-22T01:54:43;989.3;;;11.57;55.06
54459;BME280;40368;49.350;8.152;2023-12-22T01:55:43;989.4;;;11.58;54.66
54459;BME280;40368;49.350;8.152;2023-12-22T01:56:44;989.6;;;11.6;55.06
54459;BME280;40368;49.350;8.152;2023-12-22T01:57:43;989.3;;;11.55;53.81
54459;BME280;40368;49.350;8.152;2023-12-22T01:58:43;989.3;;;11.51;54.6
54459;BME280;40368;49.350;8.152;2023-12-22T01:59:43;989.3;;;11.49;55.23
54459;BME280;40368;49.350;8.152;2023-12-22T02:00:43;989.3;;;11.49;55.1
54459;BME280;40368;49.350;8.152;2023-12-22T02:01:44;989.3;;;11.52;55.91
54459;BME280;40368;49.350;8.152;2023-12-22T02:02:43;989.3;;;11.52;54.48
54459;BME280;40368;49.350;8.152;2023-12-22T02:03:43;989.6;;;11.5;54.75
54459;BME280;40368;49.350;8.152;2023-12-22T02:04:43;989.3;;;11.51;55.56
54459;BME280;40368;49.350;8.152;2023-12-22T02:05:43;989.7;;;11.49;54.76
54459;BME280;40368;49.350;8.152;2023-12-22T02:06:43;989.6;;;11.46;54.92
54459;BME280;40368;49.350;8.152;2023-12-22T02:07:44;989.6;;;11.42;55.42
54459;BME280;40368;49.350;8.152;2023-12-22T02:08:43;989.5;;;11.38;55.38
54459;BME280;40368;49.350;8.152;2023-12-22T02:09:43;989.6;;;11.34;55.33
54459;BME280;40368;49.350;8.152;2023-12-22T02:10:44;989.7;;;11.3;55.33
54459;BME280;40368;49.350;8.152;2023-12-22T02:11:43;989.7;;;11.29;54.88
54459;BME280;40368;49.350;8.152;2023-12-22T02:12:44;989.6;;;11.29;55.1
54459;BME280;40368;49.350;8.152;2023-12-22T02:13:44;989.5;;;11.29;55.65
54459;BME280;40368;49.350;8.152;2023-12-22T02:14:43;989.5;;;11.32;56.38
54459;BME280;40368;49.350;8.152;2023-12-22T02:15:44;989.3;;;11.36;55.85
54459;BME280;40368;49.350;8.152;2023-12-22T02:16:45;989.5;;;11.4;56.42
54459;BME280;40368;49.350;8.152;2023-12-22T02:17:48;989.4;;;11.42;55.5
54459;BME280;40368;49.350;8.152;2023-12-22T02:18:43;989.3;;;11.45;57.28
54459;BME280;40368;49.350;8.152;2023-12-22T02:19:45;989.3;;;11.51;57.56
54459;BME280;40368;49.350;8.152;2023-12-22T02:20:44;989.3;;;11.55;57.97
54459;BME280;40368;49.350;8.152;2023-12-22T02:22:00;989.4;;;11.61;57.9
54459;BME280;40368;49.350;8.152;2023-12-22T02:22:43;989.5;;;11.59;57.86
54459;BME280;40368;49.350;8.152;2023-12-22T02:23:46;989.7;;;11.6;58.01
54459;BME280;40368;49.350;8.152;2023-12-22T02:24:43;989.6;;;11.57;57.21
54459;BME280;40368;49.350;8.152;2023-12-22T02:25:43;989.6;;;11.51;56.94
54459;BME280;40368;49.350;8.152;2023-12-22T02:26:43;989.4;;;11.48;57.12
54459;BME280;40368;49.350;8.152;2023-12-22T02:27:44;989.5;;;11.49;56.86
54459;BME280;40368;49.350;8.152;2023-12-22T02:28:43;989.5;;;11.47;56.83
54459;BME280;40368;49.350;8.152;2023-12-22T02:29:46;989.5;;;11.47;57.01
54459;BME280;40368;49.350;8.152;2023-12-22T02:30:46;989.6;;;11.5;57.32
54459;BME280;40368;49.350;8.152;2023-12-22T02:31:43;989.7;;;11.51;56.89
54459;BME280;40368;49.350;8.152;2023-12-22T02:32:46;989.5;;;11.48;56.68
54459;BME280;40368;49.350;8.152;2023-12-22T02:33:44;989.6;;;11.5;57.21
54459;BME280;40368;49.350;8.152;2023-12-22T02:34:44;989.5;;;11.5;56.69
54459;BME280;40368;49.350;8.152;2023-12-22T02:35:44;989.3;;;11.48;57.5
54459;BME280;40368;49.350;8.152;2023-12-22T02:36:43;989.5;;;11.53;57.32
54459;BME280;40368;49.350;8.152;2023-12-22T02:37:44;989.7;;;11.55;56.79
54459;BME280;40368;49.350;8.152;2023-12-22T02:38:44;989.3;;;11.52;56.67
54459;BME280;40368;49.350;8.152;2023-12-22T02:39:43;989.3;;;11.53;56.47
54459;BME280;40368;49.350;8.152;2023-12-22T02:40:44;989.5;;;11.53;56.73
54459;BME280;40368;49.350;8.152;2023-12-22T02:41:43;989.3;;;11.53;56.5
54459;BME280;40368;49.350;8.152;2023-12-22T02:42:44;989.4;;;11.52;56.54
54459;BME280;40368;49.350;8.152;2023-12-22T02:43:43;989.5;;;11.5;57.17
54459;BME280;40368;49.350;8.152;2023-12-22T02:44:44;989.4;;;11.55;57.21
54459;BME280;40368;49.350;8.152;2023-12-22T02:45:43;989.4;;;11.61;57.2
54459;BME280;40368;49.350;8.152;2023-12-22T02:46:43;989.6;;;11.66;56.71
54459;BME280;40368;49.350;8.152;2023-12-22T02:47:43;989.5;;;11.65;57.02
54459;BME280;40368;49.350;8.152;2023-12-22T02:48:43;989.5;;;11.7;56.98
54459;BME280;40368;49.350;8.152;2023-12-22T02:49:43;989.5;;;11.72;56.89
54459;BME280;40368;49.350;8.152;2023-12-22T02:50:44;989.7;;;11.75;56.63
54459;BME280;40368;49.350;8.152;2023-12-22T02:51:43;989.6;;;11.79;56.65
54459;BME280;40368;49.350;8.152;2023-12-22T02:52:44;989.6;;;11.81;56.61
54459;BME280;40368;49.350;8.152;2023-12-22T02:53:43;989.7;;;11.75;55.62
54459;BME280;40368;49.350;8.152;2023-12-22T02:54:44;989.6;;;11.69;56.52
54459;BME280;40368;49.350;8.152;2023-12-22T02:55:44;989.8;;;11.63;55.76
54459;BME280;40368;49.350;8.152;2023-12-22T02:56:45;989.6;;;11.58;55.29
54459;BME280;40368;49.350;8.152;2023-12-22T02:57:43;989.7;;;11.52;55.05
54459;BME280;40368;49.350;8.152;2023-12-22T02:58:43;989.7;;;11.5;55.52
54459;BME280;40368;49.350;8.152;2023-12-22T02:59:43;989.7;;;11.48;55.53
54459;BME280;40368;49.350;8.152;2023-12-22T03:00:44;989.5;;;11.45;55.58
54459;BME280;40368;49.350;8.152;2023-12-22T03:01:44;989.7;;;11.44;55.1
54459;BME280;40368;49.350;8.152;2023-12-22T03:02:43;989.6;;;11.42;55.07
54459;BME280;40368;49.350;8.152;2023-12-22T03:03:44;989.5;;;11.44;55.71
54459;BME280;40368;49.350;8.152;2023-12-22T03:04:43;989.8;;;11.49;55.75
54459;BME280;40368;49.350;8.152;2023-12-22T03:05:43;989.6;;;11.53;54.72
54459;BME280;40368;49.350;8.152;2023-12-22T03:06:43;989.6;;;11.57;55.09
54459;BME280;40368;49.350;8.152;2023-12-22T03:07:44;989.7;;;11.62;54.91
54459;BME280;40368;49.350;8.152;2023-12-22T03:08:44;989.4;;;11.66;54.91
54459;BME280;40368;49.350;8.152;2023-12-22T03:09:43;989.4;;;11.68;54.49
54459;BME280;40368;49.350;8.152;2023-12-22T03:10:43;989.5;;;11.71;55.05
54459;BME280;40368;49.350;8.152;2023-12-22T03:11:44;989.5;;;11.74;55.02
54459;BME280;40368;49.350;8.152;2023-12-22T03:12:44;989.5;;;11.79;55.77
54459;BME280;40368;49.350;8.152;2023-12-22T03:13:44;989.6;;;11.79;54.62
54459;BME280;40368;49.350;8.152;2023-12-22T03:14:43;989.6;;;11.81;55.3
54459;BME280;40368;49.350;8.152;2023-12-22T03:15:43;989.6;;;11.86;55.08
54459;BME280;40368;49.350;8.152;2023-12-22T03:16:44;989.6;;;11.91;55.29
54459;BME280;40368;49.350;8.152;2023-12-22T03:17:43;989.8;;;11.94;54.36
54459;BME280;40368;49.350;8.152;2023-12-22T03:18:43;989.8;;;11.9;54.48
54459;BME280;40368;49.350;8.152;2023-12-22T03:19:43;989.9;;;11.82;54.91
54459;BME280;40368;49.350;8.152;2023-12-22T03:20:43;989.7;;;11.77;55.88
54459;BME280;40368;49.350;8.152;2023-12-22T03:21:44;989.8;;;11.76;56.17
54459;BME280;40368;49.350;8.152;2023-12-22T03:22:44;989.9;;;11.7;56.18
54459;BME280;40368;49.350;8.152;2023-12-22T03:23:43;989.8;;;11.65;55.44
54459;BME280;40368;49.350;8.152;2023-12-22T03:24:44;989.8;;;11.63;56.28
54459;BME280;40368;49.350;8.152;2023-12-22T03:25:44;990;;;11.6;56.06
54459;BME280;40368;49.350;8.152;2023-12-22T03:26:43;990.2;;;11.6;56.34
54459;BME280;40368;49.350;8.152;2023-12-22T03:27:44;990;;;11.57;56.19
54459;BME280;40368;49.350;8.152;2023-12-22T03:28:43;990;;;11.54;56.24
54459;BME280;40368;49.350;8.152;2023-12-22T03:30:43;990;;;11.5;57.17
54459;BME280;40368;49.350;8.152;2023-12-22T03:31:44;990.2;;;11.53;56.38
54459;BME280;40368;49.350;8.152;2023-12-22T03:32:43;990;;;11.51;56.8
54459;BME280;40368;49.350;8.152;2023-12-22T03:33:43;990.1;;;11.49;56.54
54459;BME280;40368;49.350;8.152;2023-12-22T03:34:43;990.2;;;11.4;56.33
54459;BME280;40368;49.350;8.152;2023-12-22T03:35:43;990.2;;;11.34;56.72
54459;BME280;40368;49.350;8.152;2023-12-22T03:36:44;990.1;;;11.32;57.16
54459;BME280;40368;49.350;8.152;2023-12-22T03:37:43;990.1;;;11.32;57.4
54459;BME280;40368;49.350;8.152;2023-12-22T03:38:43;990.2;;;11.39;57.63
54459;BME280;40368;49.350;8.152;2023-12-22T03:39:43;990.1;;;11.41;57.37
54459;BME280;40368;49.350;8.152;2023-12-22T03:40:43;990.2;;;11.44;57.32
54459;BME280;40368;49.350;8.152;2023-12-22T03:41:43;990.2;;;11.48;57.58
54459;BME280;40368;49.350;8.152;2023-12-22T03:42:43;990.2;;;11.49;57.12
54459;BME280;40368;49.350;8.152;2023-12-22T03:43:43;990.1;;;11.49;57.21
54459;BME280;40368;49.350;8.152;2023-12-22T03:44:43;990.2;;;11.48;57.29
54459;BME280;40368;49.350;8.152;2023-12-22T03:45:43;990;;;11.46;57.6
54459;BME280;40368;49.350;8.152;2023-12-22T03:46:43;990;;;11.49;57.8
54459;BME280;40368;49.350;8.152;2023-12-22T03:47:43;990.1;;;11.51;57.77
54459;BME280;40368;49.350;8.152;2023-12-22T03:48:44;990.1;;;11.54;57.5
54459;BME280;40368;49.350;8.152;2023-12-22T03:49:43;990.3;;;11.59;57.58
54459;BME280;40368;49.350;8.152;2023-12-22T03:50:43;990.2;;;11.63;57.56
54459;BME280;40368;49.350;8.152;2023-12-22T03:51:43;990.2;;;11.66;57.61
54459;BME280;40368;49.350;8.152;2023-12-22T03:52:44;990.2;;;11.67;57.51
54459;BME280;40368;49.350;8.152;2023-12-22T03:53:43;990.2;;;11.64;57.37
54459;BME280;40368;49.350;8.152;2023-12-22T03:54:43;990.1;;;11.63;57.42
54459;BME280;40368;49.350;8.152;2023-12-22T03:55:43;990.3;;;11.6;57.83
54459;BME280;40368;49.350;8.152;2023-12-22T03:56:44;990.2;;;11.59;57.77
54459;BME280;40368;49.350;8.152;2023-12-22T03:57:43;990.3;;;11.59;57.73
54459;BME280;40368;49.350;8.152;2023-12-22T03:58:44;990.2;;;11.56;57.52
54459;BME280;40368;49.350;8.152;2023-12-22T03:59:43;990.2;;;11.56;57.92
54459;BME280;40368;49.350;8.152;2023-12-22T04:00:43;990.2;;;11.57;57.77
54459;BME280;40368;49.350;8.152;2023-12-22T04:01:44;990.3;;;11.55;57.62
54459;BME280;40368;49.350;8.152;2023-12-22T04:02:44;990.3;;;11.54;57.97
54459;BME280;40368;49.350;8.152;2023-12-22T04:03:43;990.1;;;11.55;57.66
54459;BME280;40368;49.350;8.152;2023-12-22T04:04:43;990.2;;;11.54;57.91
54459;BME280;40368;49.350;8.152;2023-12-22T04:05:43;990.1;;;11.55;57.64
54459;BME280;40368;49.350;8.152;2023-12-22T04:06:43;990.1;;;11.52;57.55
54459;BME280;40368;49.350;8.152;2023-12-22T04:07:44;990.1;;;11.49;57.4
54459;BME280;40368;49.350;8.152;2023-12-22T04:08:44;990.3;;;11.46;57.64
54459;BME280;40368;49.350;8.152;2023-12-22T04:09:43;990.2;;;11.43;57.51
54459;BME280;40368;49.350;8.152;2023-12-22T04:10:44;990.4;;;11.42;57.83
54459;BME280;40368;49.350;8.152;2023-12-22T04:11:43;990.4;;;11.44;58.12
54459;BME280;40368;49.350;8.152;2023-12-22T04:12:44;990.3;;;11.5;57.9
54459;BME280;40368;49.350;8.152;2023-12-22T04:13:43;990.4;;;11.57;57.52
54459;BME280;40368;49.350;8.152;2023-12-22T04:14:44;990.4;;;11.56;57.42
54459;BME280;40368;49.350;8.152;2023-12-22T04:15:43;990.4;;;11.51;57.78
54459;BME280;40368;49.350;8.152;2023-12-22T04:16:43;990.2;;;11.45;58.25
54459;BME280;40368;49.350;8.152;2023-12-22T04:17:46;990.2;;;11.4;58.36
54459;BME280;40368;49.350;8.152;2023-12-22T04:18:44;990.3;;;11.35;58.43
54459;BME280;40368;49.350;8.152;2023-12-22T04:19:43;990.4;;;11.36;58.48
54459;BME280;40368;49.350;8.152;2023-12-22T04:20:43;990.4;;;11.34;58.45
54459;BME280;40368;49.350;8.152;2023-12-22T04:21:43;990.5;;;11.3;58.46
54459;BME280;40368;49.350;8.152;2023-12-22T04:22:44;990.5;;;11.31;58.61
54459;BME280;40368;49.350;8.152;2023-12-22T04:23:44;990.4;;;11.31;58.06
54459;BME280;40368;49.350;8.152;2023-12-22T04:24:43;990.4;;;11.28;58.59
54459;BME280;40368;49.350;8.152;2023-12-22T04:25:43;990.3;;;11.3;58.58
54459;BME280;40368;49.350;8.152;2023-12-22T04:26:43;990.3;;;11.36;58.6
54459;BME280;40368;49.350;8.152;2023-12-22T04:27:43;990.3;;;11.35;58.4
54459;BME280;40368;49.350;8.152;2023-12-22T04:28:43;990.3;;;11.38;57.92
54459;BME280;40368;49.350;8.152;2023-12-22T04:29:43;990.2;;;11.39;58.17
54459;BME280;40368;49.350;8.152;2023-12-22T04:30:43;990.2;;;11.4;57.97
54459;BME280;40368;49.350;8.152;2023-12-22T04:31:44;990.2;;;11.44;57.9
54459;BME280;40368;49.350;8.152;2023-12-22T04:32:44;990.4;;;11.5;57.67
54459;BME280;40368;49.350;8.152;2023-12-22T04:33:44;990.4;;;11.54;57.89
54459;BME280;40368;49.350;8.152;2023-12-22T04:34:43;990.4;;;11.6;57.27
54459;BME280;40368;49.350;8.152;2023-12-22T04:35:44;990.4;;;11.62;57.16
54459;BME280;40368;49.350;8.152;2023-12-22T04:36:43;990.3;;;11.65;57.13
54459;BME280;40368;49.350;8.152;2023-12-22T04:37:43;990.3;;;11.64;56.66
54459;BME280;40368;49.350;8.152;2023-12-22T04:38:44;990.2;;;11.62;56.51
54459;BME280;40368;49.350;8.152;2023-12-22T04:39:43;990.2;;;11.61;57.13
54459;BME280;40368;49.350;8.152;2023-12-22T04:40:44;990.2;;;11.62;57
54459;BME280;40368;49.350;8.152;2023-12-22T04:41:43;990.2;;;11.63;56.67
54459;BME280;40368;49.350;8.152;2023-12-22T04:42:44;990.1;;;11.62;56.83
54459;BME280;40368;49.350;8.152;2023-12-22T04:43:43;990.2;;;11.59;56.54
54459;BME280;40368;49.350;8.152;2023-12-22T04:44:43;990.1;;;11.56;56.88
54459;BME280;40368;49.350;8.152;2023-12-22T04:45:44;990.4;;;11.53;56.79
54459;BME280;40368;49.350;8.152;2023-12-22T04:46:43;990.2;;;11.47;57.02
54459;BME280;40368;49.350;8.152;2023-12-22T04:47:44;990.2;;;11.47;57.64
54459;BME280;40368;49.350;8.152;2023-12-22T04:48:43;990.4;;;11.5;57.01
54459;BME280;40368;49.350;8.152;2023-12-22T04:49:44;990.3;;;11.5;57.21
54459;BME280;40368;49.350;8.152;2023-12-22T04:50:44;990.3;;;11.47;57.18
54459;BME280;40368;49.350;8.152;2023-12-22T04:51:44;990.2;;;11.45;56.94
54459;BME280;40368;49.350;8.152;2023-12-22T04:52:43;990.3;;;11.39;57.1
54459;BME280;40368;49.350;8.152;2023-12-22T04:53:43;990.1;;;11.35;57.24
54459;BME280;40368;49.350;8.152;2023-12-22T04:54:43;990.5;;;11.33;57.61
54459;BME280;40368;49.350;8.152;2023-12-22T04:55:43;990.2;;;11.31;57.41
54459;BME280;40368;49.350;8.152;2023-12-22T04:56:44;990.2;;;11.27;57.28
54459;BME280;40368;49.350;8.152;2023-12-22T04:57:43;990.1;;;11.29;57.5
54459;BME280;40368;49.350;8.152;2023-12-22T04:58:43;990.2;;;11.3;57.66
54459;BME280;40368;49.350;8.152;2023-12-22T04:59:43;990.1;;;11.3;57.52
54459;BME280;40368;49.350;8.152;2023-12-22T05:00:43;990;;;11.3;57.71
54459;BME280;40368;49.350;8.152;2023-12-22T05:01:44;990.1;;;11.31;57.58
54459;BME280;40368;49.350;8.152;2023-12-22T05:02:43;990.4;;;11.3;57.56
54459;BME280;40368;49.350;8.152;2023-12-22T05:03:43;990.4;;;11.27;57.86
54459;BME280;40368;49.350;8.152;2023-12-22T05:04:44;990.3;;;11.25;57.75
54459;BME280;40368;49.350;8.152;2023-12-22T05:05:43;990.5;;;11.24;57.6
54459;BME280;40368;49.350;8.152;2023-12-22T05:06:43;990.5;;;11.24;57.97
54459;BME280;40368;49.350;8.152;2023-12-22T05:07:43;990.2;;;11.24;57.86
54459;BME280;40368;49.350;8.152;2023-12-22T05:08:43;990.4;;;11.23;57.9
54459;BME280;40368;49.350;8.152;2023-12-22T05:09:43;990.3;;;11.23;58.08
54459;BME280;40368;49.350;8.152;2023-12-22T05:10:44;990.4;;;11.24;57.77
54459;BME280;40368;49.350;8.152;2023-12-22T05:11:44;990.5;;;11.25;57.9
54459;BME280;40368;49.350;8.152;2023-12-22T05:12:44;990.6;;;11.26;58.07
54459;BME280;40368;49.350;8.152;2023-12-22T05:13:44;990.7;;;11.32;58.29
54459;BME280;40368;49.350;8.152;2023-12-22T05:14:43;990.7;;;11.41;57.77
54459;BME280;40368;49.350;8.152;2023-12-22T05:15:43;990.8;;;11.49;57.7
54459;BME280;40368;49.350;8.152;2023-12-22T05:16:43;990.5;;;11.53;57.49
54459;BME280;40368;49.350;8.152;2023-12-22T05:17:38;990.5;;;11.6;57.54
54459;BME280;40368;49.350;8.152;2023-12-22T05:18:43;990.5;;;11.69;56.91
54459;BME280;40368;49.350;8.152;2023-12-22T05:19:43;990.6;;;11.77;56.92
54459;BME280;40368;49.350;8.152;2023-12-22T05:20:43;990.4;;;11.82;56.53
54459;BME280;40368;49.350;8.152;2023-12-22T05:21:44;990.5;;;11.76;56.47
54459;BME280;40368;49.350;8.152;2023-12-22T05:22:43;990.6;;;11.73;57.06
54459;BME280;40368;49.350;8.152;2023-12-22T05:23:43;990.5;;;11.76;56.59
54459;BME280;40368;49.350;8.152;2023-12-22T05:24:44;990.5;;;11.8;56.32
54459;BME280;40368;49.350;8.152;2023-12-22T05:25:43;990.5;;;11.83;56.94
54459;BME280;40368;49.350;8.152;2023-12-22T05:26:43;990.7;;;11.89;56.75
54459;BME280;40368;49.350;8.152;2023-12-22T05:27:43;990.6;;;11.92;56.33
54459;BME280;40368;49.350;8.152;2023-12-22T05:28:44;990.5;;;11.98;56.52
54459;BME280;40368;49.350;8.152;2023-12-22T05:29:43;990.7;;;11.96;55.99
54459;BME280;40368;49.350;8.152;2023-12-22T05:30:44;990.6;;;11.96;56.16
54459;BME280;40368;49.350;8.152;2023-12-22T05:31:43;990.6;;;11.91;55.92
54459;BME280;40368;49.350;8.152;2023-12-22T05:32:43;990.6;;;11.86;55.58
54459;BME280;40368;49.350;8.152;2023-12-22T05:33:44;990.7;;;11.82;55.5
54459;BME280;40368;49.350;8.152;2023-12-22T05:34:44;990.6;;;11.77;56.34